createdAt,value
2022-10-04T00:01:50.642Z,102254.91
2022-10-04T00:04:26.494Z,102251.34
2022-10-04T00:07:02.024Z,102252.25
2022-10-04T00:09:38.438Z,102244.28
2022-10-04T00:12:09.562Z,102245.16
2022-10-04T00:14:42.082Z,102238.97
2022-10-04T00:17:15.353Z,102235.41
2022-10-04T00:19:48.325Z,102237.16
2022-10-04T00:22:23.374Z,102231.84
2022-10-04T00:25:36.461Z,102221.28
2022-10-04T00:28:34.232Z,102217.66
2022-10-04T00:31:22.251Z,102215.88
2022-10-04T00:33:54.524Z,102207.84
2022-10-04T00:36:40.871Z,102214.06
2022-10-04T00:39:29.867Z,102203.50
2022-10-04T00:42:35.447Z,102210.50
2022-10-04T00:45:10.444Z,102209.56
2022-10-04T00:48:07.817Z,102204.28
2022-10-04T00:50:41.885Z,102198.03
2022-10-04T00:53:22.505Z,102191.94
2022-10-04T00:55:57.552Z,102201.53
2022-10-04T00:58:35.746Z,102190.97
2022-10-04T01:01:06.919Z,102185.66
2022-10-04T01:03:42.833Z,102190.97
2022-10-04T01:06:15.762Z,102180.38
2022-10-04T01:08:50.982Z,102177.66
2022-10-04T01:11:24.245Z,102175.88
2022-10-04T01:14:01.405Z,102168.81
2022-10-04T01:16:34.848Z,102179.41
2022-10-04T01:19:30.569Z,102168.00
2022-10-04T01:22:05.971Z,102159.09
2022-10-04T01:24:41.061Z,102161.66
2022-10-04T01:27:36.256Z,102149.34
2022-10-04T01:30:11.160Z,102152.75
2022-10-04T01:32:43.586Z,102154.50
2022-10-04T01:35:17.124Z,102143.09
2022-10-04T01:37:46.932Z,102141.34
2022-10-04T01:40:19.299Z,102136.00
2022-10-04T01:42:55.212Z,102134.25
2022-10-04T01:45:32.700Z,102128.06
2022-10-04T01:48:04.690Z,102127.09
2022-10-04T01:50:38.093Z,102123.63
2022-10-04T01:53:18.446Z,102120.97
2022-10-04T01:55:54.661Z,102114.78
2022-10-04T01:58:28.845Z,102115.59
2022-10-04T02:01:03.447Z,102117.44
2022-10-04T02:03:37.812Z,102115.69
2022-10-04T02:06:11.015Z,102128.06
2022-10-04T02:08:44.399Z,102117.47
2022-10-04T02:11:22.063Z,102120.13
2022-10-04T02:13:54.553Z,102128.06
2022-10-04T02:16:26.644Z,102122.75
2022-10-04T02:18:57.906Z,102109.53
2022-10-04T02:21:28.362Z,102106.88
2022-10-04T02:23:58.778Z,102104.22
2022-10-04T02:26:31.202Z,102108.56
2022-10-04T02:29:01.138Z,102101.50
2022-10-04T02:31:44.150Z,102092.66
2022-10-04T02:34:14.525Z,102082.91
2022-10-04T02:36:44.788Z,102074.91
2022-10-04T02:39:19.768Z,102065.16
2022-10-04T02:41:54.948Z,102079.25
2022-10-04T02:44:29.357Z,102070.34
2022-10-04T02:47:08.937Z,102070.34
2022-10-04T02:49:42.270Z,102072.09
2022-10-04T02:52:16.449Z,102066.78
2022-10-04T02:54:49.725Z,102058.78
2022-10-04T02:57:24.102Z,102051.75
2022-10-04T02:59:54.252Z,102050.84
2022-10-04T03:02:29.636Z,102047.31
2022-10-04T03:05:07.123Z,102039.31
2022-10-04T03:07:38.859Z,102049.00
2022-10-04T03:10:12.167Z,102049.78
2022-10-04T03:12:45.271Z,102050.63
2022-10-04T03:15:15.849Z,102041.72
2022-10-04T03:17:47.208Z,102047.88
2022-10-04T03:20:21.422Z,102035.44
2022-10-04T03:22:56.067Z,102040.72
2022-10-04T03:25:30.621Z,102045.84
2022-10-04T03:28:05.330Z,102041.34
2022-10-04T03:30:36.750Z,102043.06
2022-10-04T03:33:08.193Z,102039.44
2022-10-04T03:35:40.672Z,102039.44
2022-10-04T03:38:14.316Z,102038.56
2022-10-04T03:40:51.693Z,102046.41
2022-10-04T03:43:27.555Z,102044.66
2022-10-04T03:45:58.742Z,102045.44
2022-10-04T03:48:38.538Z,102040.22
2022-10-04T03:51:11.565Z,102031.31
2022-10-04T03:53:45.030Z,102026.94
2022-10-04T03:56:18.682Z,102032.16
2022-10-04T03:58:53.460Z,102024.22
2022-10-04T04:01:40.294Z,102025.97
2022-10-04T04:04:22.295Z,102025.06
2022-10-04T04:07:02.621Z,102015.28
2022-10-04T04:09:42.102Z,102016.13
2022-10-04T04:12:17.877Z,102011.63
2022-10-04T04:14:53.689Z,102009.81
2022-10-04T04:17:39.361Z,102008.00
2022-10-04T04:20:30.452Z,102005.28
2022-10-04T04:23:05.266Z,101999.88
2022-10-04T04:25:38.336Z,102002.47
2022-10-04T04:28:25.748Z,101999.78
2022-10-04T04:31:01.076Z,101990.81
2022-10-04T04:33:34.430Z,101988.91
2022-10-04T04:36:09.372Z,101994.09
2022-10-04T04:38:59.041Z,101991.28
2022-10-04T04:41:31.452Z,101991.16
2022-10-04T04:44:01.465Z,101988.44
2022-10-04T04:46:34.484Z,101983.94
2022-10-04T04:49:07.102Z,101988.31
2022-10-04T04:51:36.906Z,101983.81
2022-10-04T04:54:09.560Z,101989.06
2022-10-04T04:56:39.366Z,101980.13
2022-10-04T04:59:12.095Z,101973.94
2022-10-04T05:01:48.998Z,101968.50
2022-10-04T05:04:23.640Z,101968.47
2022-10-04T05:07:04.117Z,101977.16
2022-10-04T05:09:36.517Z,101973.63
2022-10-04T05:12:11.299Z,101984.13
2022-10-04T05:14:44.429Z,101978.72
2022-10-04T05:17:23.116Z,101981.38
2022-10-04T05:19:55.104Z,101972.38
2022-10-04T05:22:27.910Z,101971.41
2022-10-04T05:25:01.596Z,101973.16
2022-10-04T05:27:35.541Z,101963.34
2022-10-04T05:30:10.082Z,101970.28
2022-10-04T05:32:56.471Z,101980.78
2022-10-04T05:35:26.860Z,101975.28
2022-10-04T05:38:09.738Z,101977.00
2022-10-04T05:40:47.512Z,101983.09
2022-10-04T05:43:25.569Z,101976.84
2022-10-04T05:46:16.771Z,101980.31
2022-10-04T05:48:52.125Z,101971.44
2022-10-04T05:51:23.113Z,101972.19
2022-10-04T05:53:55.469Z,101966.88
2022-10-04T05:56:52.484Z,101956.25
2022-10-04T05:59:39.328Z,101955.22
2022-10-04T06:02:20.351Z,101956.88
2022-10-04T06:05:12.654Z,101960.34
2022-10-04T06:07:46.684Z,101953.16
2022-10-04T06:10:40.009Z,101954.81
2022-10-04T06:13:26.150Z,101957.34
2022-10-04T06:16:18.090Z,101959.03
2022-10-04T06:19:13.165Z,101962.53
2022-10-04T06:21:59.845Z,101958.16
2022-10-04T06:24:32.578Z,101955.59
2022-10-04T06:27:12.390Z,101951.22
2022-10-04T06:29:46.773Z,101960.88
2022-10-04T06:32:49.342Z,101958.28
2022-10-04T06:35:41.091Z,101963.63
2022-10-04T06:38:33.814Z,101954.94
2022-10-04T06:41:33.432Z,101954.06
2022-10-04T06:44:36.936Z,101951.44
2022-10-04T06:47:24.626Z,101957.78
2022-10-04T06:50:01.019Z,101946.44
2022-10-04T06:52:51.362Z,101950.09
2022-10-04T06:55:48.791Z,101929.97
2022-10-04T06:58:35.916Z,101940.66
2022-10-04T07:01:13.767Z,101927.53
2022-10-04T07:03:55.884Z,101920.56
2022-10-04T07:06:30.129Z,101914.50
2022-10-04T07:09:03.169Z,101924.34
2022-10-04T07:11:45.645Z,101920.03
2022-10-04T07:14:21.647Z,101933.34
2022-10-04T07:16:54.840Z,101922.00
2022-10-04T07:19:33.885Z,101928.34
2022-10-04T07:22:17.051Z,101936.38
2022-10-04T07:25:08.740Z,101926.91
2022-10-04T07:28:12.926Z,101936.00
2022-10-04T07:30:46.021Z,101945.06
2022-10-04T07:33:21.776Z,101938.38
2022-10-04T07:35:56.834Z,101937.66
2022-10-04T07:38:31.348Z,101934.38
2022-10-04T07:41:12.319Z,101924.88
2022-10-04T07:43:52.706Z,101922.38
2022-10-04T07:46:41.360Z,101921.66
2022-10-04T07:49:17.025Z,101924.53
2022-10-04T07:52:00.119Z,101933.53
2022-10-04T07:54:40.635Z,101934.50
2022-10-04T07:57:17.456Z,101927.53
2022-10-04T07:59:58.917Z,101925.94
2022-10-04T08:02:42.516Z,101921.53
2022-10-04T08:05:24.607Z,101916.38
2022-10-04T08:08:15.921Z,101918.16
2022-10-04T08:10:57.607Z,101924.38
2022-10-04T08:13:35.974Z,101929.69
2022-10-04T08:16:24.473Z,101931.63
2022-10-04T08:19:12.817Z,101929.09
2022-10-04T08:21:51.905Z,101933.81
2022-10-04T08:24:32.516Z,101935.84
2022-10-04T08:27:21.042Z,101937.94
2022-10-04T08:30:02.717Z,101930.31
2022-10-04T08:32:49.059Z,101932.31
2022-10-04T08:35:38.559Z,101934.47
2022-10-04T08:38:26.708Z,101930.53
2022-10-04T08:41:15.427Z,101926.69
2022-10-04T08:44:21.063Z,101922.00
2022-10-04T08:47:23.592Z,101923.50
2022-10-04T08:50:26.297Z,101917.69
2022-10-04T08:53:22.000Z,101924.25
2022-10-04T08:56:12.210Z,101923.75
2022-10-04T08:59:06.871Z,101925.78
2022-10-04T09:02:00.540Z,101933.03
2022-10-04T09:04:56.939Z,101934.97
2022-10-04T09:07:52.559Z,101921.03
2022-10-04T09:10:39.429Z,101924.72
2022-10-04T09:13:38.102Z,101927.56
2022-10-04T09:16:20.332Z,101925.81
2022-10-04T09:18:54.675Z,101922.41
2022-10-04T09:21:38.298Z,101927.81
2022-10-04T09:24:42.638Z,101927.00
2022-10-04T09:27:54.166Z,101926.09
2022-10-04T09:30:32.231Z,101927.88
2022-10-04T09:33:28.829Z,101931.47
2022-10-04T09:36:14.430Z,101925.16
2022-10-04T09:39:28.949Z,101918.97
2022-10-04T09:42:31.573Z,101906.56
2022-10-04T09:45:30.746Z,101913.59
2022-10-04T09:48:32.003Z,101903.84
2022-10-04T09:51:27.592Z,101897.66
2022-10-04T09:54:09.804Z,101898.53
2022-10-04T09:57:07.011Z,101902.16
2022-10-04T09:59:54.477Z,101891.66
2022-10-04T10:02:46.808Z,101890.88
2022-10-04T10:05:35.360Z,101891.03
2022-10-04T10:08:18.180Z,101888.50
2022-10-04T10:11:11.764Z,101882.44
2022-10-04T10:14:11.582Z,101873.72
2022-10-04T10:17:01.054Z,101865.84
2022-10-04T10:19:55.213Z,101862.44
2022-10-04T10:22:47.741Z,101860.72
2022-10-04T10:25:31.405Z,101859.97
2022-10-04T10:28:33.724Z,101861.00
2022-10-04T10:31:22.858Z,101850.50
2022-10-04T10:34:31.994Z,101855.06
2022-10-04T10:37:15.616Z,101872.00
2022-10-04T10:40:16.904Z,101880.16
2022-10-04T10:43:00.989Z,101882.13
2022-10-04T10:45:45.931Z,101883.31
2022-10-04T10:48:20.412Z,101884.38
2022-10-04T10:51:03.661Z,101881.00
2022-10-04T10:54:12.240Z,101880.38
2022-10-04T10:57:02.882Z,101876.06
2022-10-04T11:00:07.337Z,101873.56
2022-10-04T11:03:20.568Z,101863.94
2022-10-04T11:06:21.428Z,101861.22
2022-10-04T11:09:35.736Z,101850.47
2022-10-04T11:12:35.178Z,101850.41
2022-10-04T11:16:07.357Z,101847.59
2022-10-04T11:19:00.851Z,101838.63
2022-10-04T11:22:12.227Z,101845.75
2022-10-04T11:25:01.568Z,101835.13
2022-10-04T11:27:48.940Z,101829.69
2022-10-04T11:30:26.557Z,101825.25
2022-10-04T11:33:32.638Z,101825.28
2022-10-04T11:36:28.275Z,101819.97
2022-10-04T11:39:20.127Z,101816.50
2022-10-04T11:41:57.057Z,101810.38
2022-10-04T11:45:06.689Z,101817.59
2022-10-04T11:47:53.740Z,101815.03
2022-10-04T11:50:39.349Z,101803.56
2022-10-04T11:53:56.446Z,101796.59
2022-10-04T11:56:38.033Z,101800.22
2022-10-04T11:59:31.657Z,101787.88
2022-10-04T12:02:37.802Z,101793.31
2022-10-04T12:05:37.040Z,101788.88
2022-10-04T12:08:21.602Z,101793.38
2022-10-04T12:11:21.476Z,101789.81
2022-10-04T12:14:01.593Z,101780.06
2022-10-04T12:17:11.239Z,101772.13
2022-10-04T12:20:01.971Z,101772.13
2022-10-04T12:23:12.837Z,101776.63
2022-10-04T12:26:03.941Z,101766.88
2022-10-04T12:29:03.076Z,101764.28
2022-10-04T12:31:37.074Z,101765.16
2022-10-04T12:34:19.726Z,101765.19
2022-10-04T12:37:10.695Z,101752.00
2022-10-04T12:39:55.833Z,101741.47
2022-10-04T12:42:37.958Z,101739.69
2022-10-04T12:45:41.471Z,101739.69
2022-10-04T12:48:25.898Z,101732.59
2022-10-04T12:51:05.379Z,101730.03
2022-10-04T12:53:49.799Z,101724.75
2022-10-04T12:56:37.827Z,101729.25
2022-10-04T12:59:20.467Z,101717.66
2022-10-04T13:02:01.897Z,101724.81
2022-10-04T13:04:41.902Z,101718.59
2022-10-04T13:07:24.600Z,101715.09
2022-10-04T13:10:23.495Z,101723.97
2022-10-04T13:13:31.278Z,101717.81
2022-10-04T13:19:14.747Z,101710.88
2022-10-04T13:22:08.513Z,101712.75
2022-10-04T13:25:00.873Z,101705.66
2022-10-04T13:27:42.860Z,101709.28
2022-10-04T13:30:23.835Z,101709.22
2022-10-04T13:33:06.649Z,101712.78
2022-10-04T13:35:43.478Z,101699.47
2022-10-04T13:38:46.926Z,101705.69
2022-10-04T13:41:28.038Z,101705.66
2022-10-04T13:44:22.897Z,101703.91
2022-10-04T13:47:24.080Z,101705.59
2022-10-04T13:50:10.514Z,101696.69
2022-10-04T13:53:02.253Z,101685.16
2022-10-04T13:55:53.761Z,101696.59
2022-10-04T13:58:38.568Z,101698.41
2022-10-04T14:01:43.444Z,101696.69
2022-10-04T14:04:28.041Z,101708.22
2022-10-04T14:07:23.864Z,101701.13
2022-10-04T14:10:06.894Z,101716.19
2022-10-04T14:13:11.638Z,101711.78
2022-10-04T14:16:10.777Z,101716.25
2022-10-04T14:19:18.842Z,101705.59
2022-10-04T14:22:26.535Z,101707.44
2022-10-04T14:25:21.128Z,101697.66
2022-10-04T14:28:17.143Z,101700.31
2022-10-04T14:31:07.311Z,101680.84
2022-10-04T14:34:01.997Z,101687.06
2022-10-04T14:37:04.624Z,101687.09
2022-10-04T14:40:07.044Z,101690.63
2022-10-04T14:43:15.419Z,101679.91
2022-10-04T14:45:57.065Z,101689.63
2022-10-04T14:48:53.430Z,101692.28
2022-10-04T14:51:52.368Z,101685.16
2022-10-04T14:54:37.575Z,101676.28
2022-10-04T14:57:18.714Z,101685.13
2022-10-04T15:00:18.038Z,101685.03
2022-10-04T15:03:05.156Z,101677.91
2022-10-04T15:06:00.044Z,101684.00
2022-10-04T15:09:05.614Z,101683.09
2022-10-04T15:11:43.373Z,101675.06
2022-10-04T15:14:37.194Z,101682.16
2022-10-04T15:17:11.800Z,101673.19
2022-10-04T15:20:04.036Z,101672.31
2022-10-04T15:22:43.622Z,101671.38
2022-10-04T15:25:41.210Z,101673.09
2022-10-04T15:28:29.064Z,101664.22
2022-10-04T15:31:09.432Z,101655.38
2022-10-04T15:33:47.740Z,101665.06
2022-10-04T15:36:50.670Z,101649.13
2022-10-04T15:39:42.929Z,101646.41
2022-10-04T15:42:17.666Z,101642.88
2022-10-04T15:45:17.821Z,101632.22
2022-10-04T15:48:06.647Z,101632.19
2022-10-04T15:50:42.487Z,101634.84
2022-10-04T15:53:28.563Z,101643.72
2022-10-04T15:56:11.787Z,101641.00
2022-10-04T15:58:56.321Z,101646.28
2022-10-04T16:01:39.103Z,101636.47
2022-10-04T16:04:28.527Z,101642.63
2022-10-04T16:07:04.094Z,101648.75
2022-10-04T16:09:40.808Z,101639.00
2022-10-04T16:12:24.066Z,101647.81
2022-10-04T16:15:01.789Z,101645.13
2022-10-04T16:17:53.314Z,101634.47
2022-10-04T16:20:52.360Z,101637.97
2022-10-04T16:23:29.023Z,101631.69
2022-10-04T16:26:01.892Z,101632.56
2022-10-04T16:28:56.419Z,101628.97
2022-10-04T16:31:40.948Z,101641.28
2022-10-04T16:34:26.228Z,101635.91
2022-10-04T16:37:05.379Z,101642.06
2022-10-04T16:39:51.079Z,101637.56
2022-10-04T16:42:25.935Z,101642.00
2022-10-04T16:45:01.008Z,101635.75
2022-10-04T16:47:35.127Z,101629.50
2022-10-04T16:50:06.215Z,101626.78
2022-10-04T16:52:49.280Z,101618.81
2022-10-04T16:55:38.503Z,101616.13
2022-10-04T16:58:55.902Z,101609.88
2022-10-04T17:01:55.214Z,101611.53
2022-10-04T17:04:46.605Z,101618.63
2022-10-04T17:07:28.346Z,101615.97
2022-10-04T17:10:08.928Z,101628.25
2022-10-04T17:12:49.201Z,101629.97
2022-10-04T17:15:35.789Z,101634.41
2022-10-04T17:18:16.573Z,101624.59
2022-10-04T17:20:59.354Z,101622.81
2022-10-04T17:24:03.543Z,101628.94
2022-10-04T17:26:45.684Z,101622.69
2022-10-04T17:29:35.834Z,101623.59
2022-10-04T17:32:17.368Z,101632.41
2022-10-04T17:34:59.702Z,101624.38
2022-10-04T17:37:44.767Z,101626.09
2022-10-04T17:40:34.608Z,101626.03
2022-10-04T17:43:16.192Z,101626.88
2022-10-04T17:45:55.575Z,101631.28
2022-10-04T17:48:41.109Z,101643.63
2022-10-04T17:51:44.288Z,101644.50
2022-10-04T17:54:31.579Z,101649.78
2022-10-04T17:57:15.809Z,101645.38
2022-10-04T17:59:54.095Z,101645.28
2022-10-04T18:02:30.637Z,101645.28
2022-10-04T18:05:08.441Z,101639.97
2022-10-04T18:07:48.373Z,101625.81
2022-10-04T18:10:27.581Z,101615.19
2022-10-04T18:13:03.721Z,101619.56
2022-10-04T18:15:41.573Z,101617.75
2022-10-04T18:18:19.037Z,101612.44
2022-10-04T18:21:07.787Z,101600.03
2022-10-04T18:23:40.578Z,101600.03
2022-10-04T18:26:19.333Z,101602.69
2022-10-04T18:28:50.470Z,101609.72
2022-10-04T18:31:37.828Z,101620.34
2022-10-04T18:34:32.192Z,101627.47
2022-10-04T18:37:21.632Z,101607.06
2022-10-04T18:39:55.622Z,101594.66
2022-10-04T18:42:30.801Z,101592.84
2022-10-04T18:45:02.671Z,101604.34
2022-10-04T18:47:38.548Z,101604.34
2022-10-04T18:50:19.732Z,101597.25
2022-10-04T18:53:01.319Z,101594.59
2022-10-04T18:55:39.768Z,101591.03
2022-10-04T18:58:36.870Z,101591.03
2022-10-04T19:01:34.627Z,101590.13
2022-10-04T19:04:17.226Z,101584.84
2022-10-04T19:06:50.166Z,101578.69
2022-10-04T19:09:29.559Z,101578.63
2022-10-04T19:12:07.890Z,101572.44
2022-10-04T19:14:48.346Z,101568.91
2022-10-04T19:17:28.250Z,101566.28
2022-10-04T19:20:07.273Z,101565.41
2022-10-04T19:22:51.188Z,101555.69
2022-10-04T19:25:34.450Z,101560.09
2022-10-04T19:28:09.945Z,101553.03
2022-10-04T19:30:54.465Z,101549.53
2022-10-04T19:33:39.221Z,101562.81
2022-10-04T19:36:22.786Z,101560.16
2022-10-04T19:39:03.652Z,101552.19
2022-10-04T19:41:50.834Z,101550.41
2022-10-04T19:44:39.568Z,101567.25
2022-10-04T19:47:24.496Z,101571.72
2022-10-04T19:50:01.581Z,101572.59
2022-10-04T19:52:40.777Z,101561.16
2022-10-04T19:55:23.395Z,101557.59
2022-10-04T19:57:56.104Z,101553.19
2022-10-04T20:00:25.949Z,101542.56
2022-10-04T20:02:55.738Z,101537.25
2022-10-04T20:05:28.265Z,101535.44
2022-10-04T20:08:05.639Z,101548.75
2022-10-04T20:10:38.624Z,101541.69
2022-10-04T20:13:25.114Z,101546.16
2022-10-04T20:15:59.455Z,101538.13
2022-10-04T20:18:59.207Z,101540.84
2022-10-04T20:21:31.541Z,101546.16
2022-10-04T20:24:04.480Z,101546.16
2022-10-04T20:26:55.697Z,101556.78
2022-10-04T20:30:03.055Z,101560.31
2022-10-04T20:32:57.891Z,101562.09
2022-10-04T20:36:06.953Z,101568.28
2022-10-04T20:39:01.956Z,101576.25
2022-10-04T20:42:22.690Z,101569.22
2022-10-04T20:44:57.999Z,101566.56
2022-10-04T20:47:39.338Z,101563.03
2022-10-04T20:50:18.042Z,101566.56
2022-10-04T20:52:49.874Z,101567.44
2022-10-04T20:55:29.850Z,101571.88
2022-10-04T20:58:02.077Z,101565.69
2022-10-04T21:00:36.792Z,101560.41
2022-10-04T21:03:11.544Z,101562.16
2022-10-04T21:05:42.297Z,101555.09
2022-10-04T21:08:24.281Z,101549.78
2022-10-04T21:11:15.555Z,101544.47
2022-10-04T21:14:00.087Z,101535.59
2022-10-04T21:16:44.290Z,101533.88
2022-10-04T21:19:32.901Z,101532.94
2022-10-04T21:22:04.141Z,101538.25
2022-10-04T21:24:38.682Z,101551.50
2022-10-04T21:27:10.816Z,101542.66
2022-10-04T21:29:43.308Z,101544.44
2022-10-04T21:32:15.600Z,101541.78
2022-10-04T21:34:54.176Z,101551.50
2022-10-04T21:37:25.041Z,101540.84
2022-10-04T21:39:55.113Z,101537.34
2022-10-04T21:42:24.972Z,101544.38
2022-10-04T21:44:55.074Z,101544.44
2022-10-04T21:47:27.443Z,101539.09
2022-10-04T21:49:57.556Z,101534.66
2022-10-04T21:52:27.402Z,101538.19
2022-10-04T21:54:57.098Z,101541.72
2022-10-04T21:57:27.735Z,101538.13
2022-10-04T21:59:59.511Z,101547.88
2022-10-04T22:02:31.869Z,101542.56
2022-10-04T22:05:01.617Z,101547.88
2022-10-04T22:07:31.401Z,101536.38
2022-10-04T22:10:01.168Z,101539.03
2022-10-04T22:12:30.888Z,101539.84
2022-10-04T22:15:00.614Z,101539.84
2022-10-04T22:17:32.946Z,101528.34
2022-10-04T22:20:02.657Z,101520.34
2022-10-04T22:22:37.561Z,101529.22
2022-10-04T22:25:17.754Z,101520.34
2022-10-04T22:27:48.228Z,101517.69
2022-10-04T22:30:27.505Z,101515.03
2022-10-04T22:33:03.157Z,101516.78
2022-10-04T22:35:36.180Z,101512.31
2022-10-04T22:38:11.116Z,101505.22
2022-10-04T22:40:40.793Z,101510.56
2022-10-04T22:43:16.599Z,101508.78
2022-10-04T22:45:46.367Z,101510.53
2022-10-04T22:48:18.937Z,101503.47
2022-10-04T22:50:48.675Z,101501.66
2022-10-04T22:53:22.465Z,101496.28
2022-10-04T22:55:55.959Z,101490.97
2022-10-04T22:58:25.682Z,101493.63
2022-10-04T23:00:57.784Z,101487.41
2022-10-04T23:03:34.502Z,101485.69
2022-10-04T23:06:08.232Z,101478.59
2022-10-04T23:08:37.946Z,101475.94
2022-10-04T23:11:07.731Z,101480.34
2022-10-04T23:13:39.460Z,101487.41
2022-10-04T23:16:15.879Z,101479.41
2022-10-04T23:18:48.255Z,101479.41
2022-10-04T23:21:26.018Z,101478.53
2022-10-04T23:23:56.380Z,101473.22
2022-10-04T23:26:27.894Z,101476.72
2022-10-04T23:28:57.622Z,101483.81
2022-10-04T23:31:29.556Z,101477.59
2022-10-04T23:34:01.963Z,101473.19
2022-10-04T23:36:31.771Z,101470.53
2022-10-04T23:39:04.377Z,101474.97
2022-10-04T23:41:34.159Z,101470.53
2022-10-04T23:44:04.088Z,101475.88
2022-10-04T23:46:34.167Z,101471.47
2022-10-04T23:49:06.482Z,101469.69
2022-10-04T23:51:36.293Z,101462.59
2022-10-04T23:54:06.192Z,101450.19
2022-10-04T23:56:35.952Z,101459.03
2022-10-04T23:59:05.910Z,101454.56
